sensor_id;sensor_type;location;lat;lon;timestamp;temperature;humidity
66088;DHT22;52872;52.994;6.940;2023-02-26T00:00:08;1.60;99.90
66088;DHT22;52872;52.994;6.940;2023-02-26T00:02:38;1.60;99.90
66088;DHT22;52872;52.994;6.940;2023-02-26T00:05:06;1.60;99.90
66088;DHT22;52872;52.994;6.940;2023-02-26T00:07:33;1.60;99.90
66088;DHT22;52872;52.994;6.940;2023-02-26T00:10:00;1.60;99.90
66088;DHT22;52872;52.994;6.940;2023-02-26T00:12:29;1.60;99.90
66088;DHT22;52872;52.994;6.940;2023-02-26T00:14:56;1.60;99.90
66088;DHT22;52872;52.994;6.940;2023-02-26T00:17:35;1.60;99.90
66088;DHT22;52872;52.994;6.940;2023-02-26T00:20:04;1.60;99.90
66088;DHT22;52872;52.994;6.940;2023-02-26T00:22:31;1.60;99.90
66088;DHT22;52872;52.994;6.940;2023-02-26T00:24:58;1.60;99.90
66088;DHT22;52872;52.994;6.940;2023-02-26T00:27:25;1.50;99.90
66088;DHT22;52872;52.994;6.940;2023-02-26T00:29:52;1.50;99.90
66088;DHT22;52872;52.994;6.940;2023-02-26T00:32:20;1.50;99.90
66088;DHT22;52872;52.994;6.940;2023-02-26T00:34:48;1.50;99.90
66088;DHT22;52872;52.994;6.940;2023-02-26T00:37:35;1.40;99.90
66088;DHT22;52872;52.994;6.940;2023-02-26T00:42:46;1.40;99.90
66088;DHT22;52872;52.994;6.940;2023-02-26T00:45:13;1.40;99.90
66088;DHT22;52872;52.994;6.940;2023-02-26T00:50:25;1.40;99.90
66088;DHT22;52872;52.994;6.940;2023-02-26T00:55:44;1.30;99.90
66088;DHT22;52872;52.994;6.940;2023-02-26T00:58:11;1.30;99.90
66088;DHT22;52872;52.994;6.940;2023-02-26T01:00:38;1.20;99.90
66088;DHT22;52872;52.994;6.940;2023-02-26T01:03:06;1.20;99.90
66088;DHT22;52872;52.994;6.940;2023-02-26T01:05:34;1.20;99.90
66088;DHT22;52872;52.994;6.940;2023-02-26T01:08:22;1.20;99.90
66088;DHT22;52872;52.994;6.940;2023-02-26T01:10:50;1.20;99.90
66088;DHT22;52872;52.994;6.940;2023-02-26T01:13:17;1.20;99.90
66088;DHT22;52872;52.994;6.940;2023-02-26T01:15:49;1.10;99.90
66088;DHT22;52872;52.994;6.940;2023-02-26T01:18:32;1.10;99.90
66088;DHT22;52872;52.994;6.940;2023-02-26T01:21:07;1.10;99.90
66088;DHT22;52872;52.994;6.940;2023-02-26T01:23:39;1.00;99.90
66088;DHT22;52872;52.994;6.940;2023-02-26T01:26:14;1.00;99.90
66088;DHT22;52872;52.994;6.940;2023-02-26T01:28:45;1.00;99.90
66088;DHT22;52872;52.994;6.940;2023-02-26T01:34:45;1.00;99.90
66088;DHT22;52872;52.994;6.940;2023-02-26T01:40:34;0.80;99.90
66088;DHT22;52872;52.994;6.940;2023-02-26T01:43:06;0.80;99.90
66088;DHT22;52872;52.994;6.940;2023-02-26T01:45:58;0.70;99.90
66088;DHT22;52872;52.994;6.940;2023-02-26T01:48:37;0.70;99.90
66088;DHT22;52872;52.994;6.940;2023-02-26T01:51:04;0.70;99.90
66088;DHT22;52872;52.994;6.940;2023-02-26T01:53:31;0.70;99.90
66088;DHT22;52872;52.994;6.940;2023-02-26T01:56:05;0.70;99.90
66088;DHT22;52872;52.994;6.940;2023-02-26T01:58:36;0.70;99.90
66088;DHT22;52872;52.994;6.940;2023-02-26T02:01:04;0.70;99.90
66088;DHT22;52872;52.994;6.940;2023-02-26T02:03:36;0.70;99.90
66088;DHT22;52872;52.994;6.940;2023-02-26T02:06:15;0.70;99.90
66088;DHT22;52872;52.994;6.940;2023-02-26T02:08:43;0.70;99.90
66088;DHT22;52872;52.994;6.940;2023-02-26T02:11:11;0.70;99.90
66088;DHT22;52872;52.994;6.940;2023-02-26T02:14:11;0.70;99.90
66088;DHT22;52872;52.994;6.940;2023-02-26T02:22:11;0.60;99.90
66088;DHT22;52872;52.994;6.940;2023-02-26T02:25:15;0.70;99.90
66088;DHT22;52872;52.994;6.940;2023-02-26T02:27:46;0.70;99.90
66088;DHT22;52872;52.994;6.940;2023-02-26T02:33:01;0.60;99.90
66088;DHT22;52872;52.994;6.940;2023-02-26T02:35:32;0.60;99.90
66088;DHT22;52872;52.994;6.940;2023-02-26T02:38:08;0.60;99.90
66088;DHT22;52872;52.994;6.940;2023-02-26T02:40:41;0.60;99.90
66088;DHT22;52872;52.994;6.940;2023-02-26T02:43:14;0.60;99.90
66088;DHT22;52872;52.994;6.940;2023-02-26T02:48:32;0.60;99.90
66088;DHT22;52872;52.994;6.940;2023-02-26T02:51:05;0.60;99.90
66088;DHT22;52872;52.994;6.940;2023-02-26T02:56:51;0.60;99.90
66088;DHT22;52872;52.994;6.940;2023-02-26T02:59:44;0.60;99.90
66088;DHT22;52872;52.994;6.940;2023-02-26T03:02:35;0.60;99.90
66088;DHT22;52872;52.994;6.940;2023-02-26T03:05:06;0.50;99.90
66088;DHT22;52872;52.994;6.940;2023-02-26T03:07:39;0.50;99.90
66088;DHT22;52872;52.994;6.940;2023-02-26T03:10:08;0.50;99.90
66088;DHT22;52872;52.994;6.940;2023-02-26T03:12:35;0.50;99.90
66088;DHT22;52872;52.994;6.940;2023-02-26T03:15:03;0.50;99.90
66088;DHT22;52872;52.994;6.940;2023-02-26T03:20:37;0.50;99.90
66088;DHT22;52872;52.994;6.940;2023-02-26T03:23:32;0.50;99.90
66088;DHT22;52872;52.994;6.940;2023-02-26T03:26:44;0.40;99.90
66088;DHT22;52872;52.994;6.940;2023-02-26T03:29:23;0.40;99.90
66088;DHT22;52872;52.994;6.940;2023-02-26T03:31:58;0.40;99.90
66088;DHT22;52872;52.994;6.940;2023-02-26T03:34:52;0.30;99.90
66088;DHT22;52872;52.994;6.940;2023-02-26T03:37:41;0.30;99.90
66088;DHT22;52872;52.994;6.940;2023-02-26T03:40:45;0.30;99.90
66088;DHT22;52872;52.994;6.940;2023-02-26T03:43:28;0.30;99.90
66088;DHT22;52872;52.994;6.940;2023-02-26T03:45:59;0.20;99.90
66088;DHT22;52872;52.994;6.940;2023-02-26T03:48:29;0.20;99.90
66088;DHT22;52872;52.994;6.940;2023-02-26T03:51:01;0.20;99.90
66088;DHT22;52872;52.994;6.940;2023-02-26T03:53:57;0.20;99.90
66088;DHT22;52872;52.994;6.940;2023-02-26T03:56:44;0.20;99.90
66088;DHT22;52872;52.994;6.940;2023-02-26T03:59:24;0.20;99.90
66088;DHT22;52872;52.994;6.940;2023-02-26T04:02:14;0.20;99.90
66088;DHT22;52872;52.994;6.940;2023-02-26T04:05:02;0.20;99.90
66088;DHT22;52872;52.994;6.940;2023-02-26T04:07:33;0.20;99.90
66088;DHT22;52872;52.994;6.940;2023-02-26T04:10:00;0.10;99.90
66088;DHT22;52872;52.994;6.940;2023-02-26T04:12:29;0.10;99.90
66088;DHT22;52872;52.994;6.940;2023-02-26T04:14:57;0.20;99.90
66088;DHT22;52872;52.994;6.940;2023-02-26T04:17:25;0.20;99.90
66088;DHT22;52872;52.994;6.940;2023-02-26T04:19:52;0.20;99.90
66088;DHT22;52872;52.994;6.940;2023-02-26T04:22:19;0.20;99.90
66088;DHT22;52872;52.994;6.940;2023-02-26T04:24:46;0.20;99.90
66088;DHT22;52872;52.994;6.940;2023-02-26T04:27:14;0.10;99.90
66088;DHT22;52872;52.994;6.940;2023-02-26T04:29:41;0.10;99.90
66088;DHT22;52872;52.994;6.940;2023-02-26T04:32:08;0.10;99.90
66088;DHT22;52872;52.994;6.940;2023-02-26T04:34:35;0.10;99.90
66088;DHT22;52872;52.994;6.940;2023-02-26T04:37:03;0.10;99.90
66088;DHT22;52872;52.994;6.940;2023-02-26T04:39:30;0.10;99.90
66088;DHT22;52872;52.994;6.940;2023-02-26T04:41:57;0.10;99.90
66088;DHT22;52872;52.994;6.940;2023-02-26T04:44:24;0.10;99.90
66088;DHT22;52872;52.994;6.940;2023-02-26T04:46:51;0.10;99.90
66088;DHT22;52872;52.994;6.940;2023-02-26T04:49:19;0.10;99.90
66088;DHT22;52872;52.994;6.940;2023-02-26T04:51:46;0.10;99.90
66088;DHT22;52872;52.994;6.940;2023-02-26T04:54:15;0.10;99.90
66088;DHT22;52872;52.994;6.940;2023-02-26T04:56:41;0.10;99.90
66088;DHT22;52872;52.994;6.940;2023-02-26T04:59:08;0.10;99.90
66088;DHT22;52872;52.994;6.940;2023-02-26T05:01:36;0.10;99.90
66088;DHT22;52872;52.994;6.940;2023-02-26T05:04:06;0.00;99.90
66088;DHT22;52872;52.994;6.940;2023-02-26T05:06:34;0.00;99.90
66088;DHT22;52872;52.994;6.940;2023-02-26T05:09:01;0.00;99.90
66088;DHT22;52872;52.994;6.940;2023-02-26T05:11:29;0.00;99.90
66088;DHT22;52872;52.994;6.940;2023-02-26T05:13:56;0.00;99.90
66088;DHT22;52872;52.994;6.940;2023-02-26T05:16:23;0.00;99.90
66088;DHT22;52872;52.994;6.940;2023-02-26T05:18:50;-0.10;99.90
66088;DHT22;52872;52.994;6.940;2023-02-26T05:21:17;-0.10;99.90
66088;DHT22;52872;52.994;6.940;2023-02-26T05:23:45;-0.10;99.90
66088;DHT22;52872;52.994;6.940;2023-02-26T05:26:12;-0.10;99.90
66088;DHT22;52872;52.994;6.940;2023-02-26T05:28:39;-0.10;99.90
66088;DHT22;52872;52.994;6.940;2023-02-26T05:31:07;-0.10;99.90
66088;DHT22;52872;52.994;6.940;2023-02-26T05:33:34;-0.10;99.90
66088;DHT22;52872;52.994;6.940;2023-02-26T05:36:01;-0.10;99.90
66088;DHT22;52872;52.994;6.940;2023-02-26T05:38:28;-0.10;99.90
66088;DHT22;52872;52.994;6.940;2023-02-26T05:40:56;-0.10;99.90
66088;DHT22;52872;52.994;6.940;2023-02-26T05:43:24;-0.10;99.90
66088;DHT22;52872;52.994;6.940;2023-02-26T05:45:52;-0.10;99.90
66088;DHT22;52872;52.994;6.940;2023-02-26T05:48:19;-0.10;99.90
66088;DHT22;52872;52.994;6.940;2023-02-26T05:50:49;-0.10;99.90
66088;DHT22;52872;52.994;6.940;2023-02-26T05:53:16;-0.10;99.90
66088;DHT22;52872;52.994;6.940;2023-02-26T05:55:43;-0.20;99.90
66088;DHT22;52872;52.994;6.940;2023-02-26T05:58:11;-0.20;99.90
66088;DHT22;52872;52.994;6.940;2023-02-26T06:00:38;-0.20;99.90
66088;DHT22;52872;52.994;6.940;2023-02-26T06:03:05;-0.20;99.90
66088;DHT22;52872;52.994;6.940;2023-02-26T06:05:32;-0.20;99.90
66088;DHT22;52872;52.994;6.940;2023-02-26T06:07:59;-0.20;99.90
66088;DHT22;52872;52.994;6.940;2023-02-26T06:10:26;-0.20;99.90
66088;DHT22;52872;52.994;6.940;2023-02-26T06:12:52;-0.20;99.90
66088;DHT22;52872;52.994;6.940;2023-02-26T06:15:19;-0.30;99.90
66088;DHT22;52872;52.994;6.940;2023-02-26T06:17:46;-0.30;99.90
66088;DHT22;52872;52.994;6.940;2023-02-26T06:20:13;-0.30;99.90
66088;DHT22;52872;52.994;6.940;2023-02-26T06:22:40;-0.30;99.90
66088;DHT22;52872;52.994;6.940;2023-02-26T06:25:08;-0.30;99.90
66088;DHT22;52872;52.994;6.940;2023-02-26T06:27:35;-0.20;99.90
66088;DHT22;52872;52.994;6.940;2023-02-26T06:30:02;-0.20;99.90
66088;DHT22;52872;52.994;6.940;2023-02-26T06:32:30;-0.20;99.90
66088;DHT22;52872;52.994;6.940;2023-02-26T06:34:57;-0.20;99.90
66088;DHT22;52872;52.994;6.940;2023-02-26T06:37:24;-0.20;99.90
66088;DHT22;52872;52.994;6.940;2023-02-26T06:39:51;-0.20;99.90
66088;DHT22;52872;52.994;6.940;2023-02-26T06:42:18;-0.20;99.90
66088;DHT22;52872;52.994;6.940;2023-02-26T06:44:46;-0.20;99.90
66088;DHT22;52872;52.994;6.940;2023-02-26T06:47:12;-0.10;99.90
66088;DHT22;52872;52.994;6.940;2023-02-26T06:49:40;-0.10;99.90
66088;DHT22;52872;52.994;6.940;2023-02-26T06:52:07;-0.10;99.90
66088;DHT22;52872;52.994;6.940;2023-02-26T06:54:34;-0.10;99.90
66088;DHT22;52872;52.994;6.940;2023-02-26T06:57:01;0.00;99.90
66088;DHT22;52872;52.994;6.940;2023-02-26T06:59:28;0.10;99.90
66088;DHT22;52872;52.994;6.940;2023-02-26T07:01:55;0.20;99.90
66088;DHT22;52872;52.994;6.940;2023-02-26T07:04:23;0.40;99.90
66088;DHT22;52872;52.994;6.940;2023-02-26T07:06:50;0.60;99.90
66088;DHT22;52872;52.994;6.940;2023-02-26T07:09:18;0.70;99.90
66088;DHT22;52872;52.994;6.940;2023-02-26T07:11:47;0.70;99.90
66088;DHT22;52872;52.994;6.940;2023-02-26T07:14:14;0.80;99.90
66088;DHT22;52872;52.994;6.940;2023-02-26T07:16:41;0.90;99.90
66088;DHT22;52872;52.994;6.940;2023-02-26T07:19:08;0.90;99.90
66088;DHT22;52872;52.994;6.940;2023-02-26T07:21:35;1.00;99.90
66088;DHT22;52872;52.994;6.940;2023-02-26T07:24:02;1.10;99.90
66088;DHT22;52872;52.994;6.940;2023-02-26T07:26:29;1.20;99.90
66088;DHT22;52872;52.994;6.940;2023-02-26T07:28:56;1.50;99.90
66088;DHT22;52872;52.994;6.940;2023-02-26T07:31:23;1.80;99.90
66088;DHT22;52872;52.994;6.940;2023-02-26T07:33:50;2.10;99.90
66088;DHT22;52872;52.994;6.940;2023-02-26T07:36:17;2.40;99.90
66088;DHT22;52872;52.994;6.940;2023-02-26T07:38:44;2.60;99.90
66088;DHT22;52872;52.994;6.940;2023-02-26T07:41:11;2.80;99.90
66088;DHT22;52872;52.994;6.940;2023-02-26T07:43:38;3.00;99.90
66088;DHT22;52872;52.994;6.940;2023-02-26T07:46:05;3.10;99.90
66088;DHT22;52872;52.994;6.940;2023-02-26T07:48:32;3.10;99.90
66088;DHT22;52872;52.994;6.940;2023-02-26T07:50:59;3.10;99.90
66088;DHT22;52872;52.994;6.940;2023-02-26T07:53:26;3.00;99.90
66088;DHT22;52872;52.994;6.940;2023-02-26T07:55:53;2.90;99.90
66088;DHT22;52872;52.994;6.940;2023-02-26T07:58:20;3.00;99.90
66088;DHT22;52872;52.994;6.940;2023-02-26T08:00:47;3.20;99.90
66088;DHT22;52872;52.994;6.940;2023-02-26T08:03:14;3.30;99.90
66088;DHT22;52872;52.994;6.940;2023-02-26T08:05:41;3.50;99.90
66088;DHT22;52872;52.994;6.940;2023-02-26T08:08:08;3.60;99.90
66088;DHT22;52872;52.994;6.940;2023-02-26T08:10:35;3.60;99.90
66088;DHT22;52872;52.994;6.940;2023-02-26T08:13:02;3.70;99.90
66088;DHT22;52872;52.994;6.940;2023-02-26T08:15:29;4.00;99.90
66088;DHT22;52872;52.994;6.940;2023-02-26T08:17:56;4.30;99.90
66088;DHT22;52872;52.994;6.940;2023-02-26T08:20:23;4.80;99.90
66088;DHT22;52872;52.994;6.940;2023-02-26T08:22:50;5.20;99.90
66088;DHT22;52872;52.994;6.940;2023-02-26T08:25:18;5.50;99.90
66088;DHT22;52872;52.994;6.940;2023-02-26T08:27:45;5.80;99.90
66088;DHT22;52872;52.994;6.940;2023-02-26T08:30:12;5.80;99.90
66088;DHT22;52872;52.994;6.940;2023-02-26T08:32:39;5.90;99.90
66088;DHT22;52872;52.994;6.940;2023-02-26T08:35:09;6.00;99.90
66088;DHT22;52872;52.994;6.940;2023-02-26T08:37:37;6.00;99.90
66088;DHT22;52872;52.994;6.940;2023-02-26T08:40:06;5.90;99.90
66088;DHT22;52872;52.994;6.940;2023-02-26T08:42:34;5.60;99.80
66088;DHT22;52872;52.994;6.940;2023-02-26T08:45:02;5.30;99.70
66088;DHT22;52872;52.994;6.940;2023-02-26T08:47:29;5.10;99.90
66088;DHT22;52872;52.994;6.940;2023-02-26T08:49:56;4.80;99.90
66088;DHT22;52872;52.994;6.940;2023-02-26T08:52:24;4.60;99.90
66088;DHT22;52872;52.994;6.940;2023-02-26T08:54:51;4.40;99.90
66088;DHT22;52872;52.994;6.940;2023-02-26T08:57:18;4.30;99.90
66088;DHT22;52872;52.994;6.940;2023-02-26T08:59:45;4.20;99.90
66088;DHT22;52872;52.994;6.940;2023-02-26T09:02:13;4.10;99.90
66088;DHT22;52872;52.994;6.940;2023-02-26T09:04:40;4.10;99.90
66088;DHT22;52872;52.994;6.940;2023-02-26T09:07:07;4.10;99.90
66088;DHT22;52872;52.994;6.940;2023-02-26T09:09:34;4.10;99.90
66088;DHT22;52872;52.994;6.940;2023-02-26T09:12:01;4.20;99.90
66088;DHT22;52872;52.994;6.940;2023-02-26T09:14:27;4.20;99.90
66088;DHT22;52872;52.994;6.940;2023-02-26T09:16:54;4.20;99.90
66088;DHT22;52872;52.994;6.940;2023-02-26T09:19:22;4.20;99.90
66088;DHT22;52872;52.994;6.940;2023-02-26T09:21:49;4.20;99.90
66088;DHT22;52872;52.994;6.940;2023-02-26T09:24:16;4.30;99.90
66088;DHT22;52872;52.994;6.940;2023-02-26T09:26:43;4.30;99.90
66088;DHT22;52872;52.994;6.940;2023-02-26T09:29:10;4.40;99.90
66088;DHT22;52872;52.994;6.940;2023-02-26T09:31:39;4.40;99.90
66088;DHT22;52872;52.994;6.940;2023-02-26T09:34:06;4.50;99.90
66088;DHT22;52872;52.994;6.940;2023-02-26T09:36:34;4.50;99.90
66088;DHT22;52872;52.994;6.940;2023-02-26T09:39:04;4.50;99.90
66088;DHT22;52872;52.994;6.940;2023-02-26T09:41:37;4.60;99.90
66088;DHT22;52872;52.994;6.940;2023-02-26T09:44:26;4.70;99.90
66088;DHT22;52872;52.994;6.940;2023-02-26T09:47:05;4.70;99.90
66088;DHT22;52872;52.994;6.940;2023-02-26T09:50:00;4.70;99.90
66088;DHT22;52872;52.994;6.940;2023-02-26T09:55:35;4.80;99.90
66088;DHT22;52872;52.994;6.940;2023-02-26T09:58:13;4.90;99.90
66088;DHT22;52872;52.994;6.940;2023-02-26T10:03:56;5.10;99.90
66088;DHT22;52872;52.994;6.940;2023-02-26T10:14:23;5.30;99.30
66088;DHT22;52872;52.994;6.940;2023-02-26T10:16:56;5.30;99.30
66088;DHT22;52872;52.994;6.940;2023-02-26T10:19:32;5.30;99.80
66088;DHT22;52872;52.994;6.940;2023-02-26T10:22:31;5.40;99.00
66088;DHT22;52872;52.994;6.940;2023-02-26T10:25:06;5.40;99.00
66088;DHT22;52872;52.994;6.940;2023-02-26T10:27:50;5.40;99.10
66088;DHT22;52872;52.994;6.940;2023-02-26T10:30:53;5.50;99.40
66088;DHT22;52872;52.994;6.940;2023-02-26T10:33:58;5.50;99.60
66088;DHT22;52872;52.994;6.940;2023-02-26T10:36:29;5.60;98.70
66088;DHT22;52872;52.994;6.940;2023-02-26T10:39:26;5.60;98.70
66088;DHT22;52872;52.994;6.940;2023-02-26T10:41:50;5.70;98.50
66088;DHT22;52872;52.994;6.940;2023-02-26T10:44:27;5.70;97.90
66088;DHT22;52872;52.994;6.940;2023-02-26T10:52:18;5.70;97.50
66088;DHT22;52872;52.994;6.940;2023-02-26T10:57:46;5.70;96.70
66088;DHT22;52872;52.994;6.940;2023-02-26T11:00:18;5.70;97.30
66088;DHT22;52872;52.994;6.940;2023-02-26T11:02:48;5.70;97.10
66088;DHT22;52872;52.994;6.940;2023-02-26T11:05:29;5.70;96.60
66088;DHT22;52872;52.994;6.940;2023-02-26T11:08:09;5.70;96.90
66088;DHT22;52872;52.994;6.940;2023-02-26T11:11:00;5.90;97.00
66088;DHT22;52872;52.994;6.940;2023-02-26T11:13:30;6.10;96.50
66088;DHT22;52872;52.994;6.940;2023-02-26T11:16:02;6.20;96.10
66088;DHT22;52872;52.994;6.940;2023-02-26T11:18:38;6.30;96.00
66088;DHT22;52872;52.994;6.940;2023-02-26T11:21:08;6.50;96.00
66088;DHT22;52872;52.994;6.940;2023-02-26T11:23:42;6.60;96.00
66088;DHT22;52872;52.994;6.940;2023-02-26T11:26:18;6.70;96.00
66088;DHT22;52872;52.994;6.940;2023-02-26T11:28:46;6.90;95.90
66088;DHT22;52872;52.994;6.940;2023-02-26T11:31:17;7.00;96.00
66088;DHT22;52872;52.994;6.940;2023-02-26T11:34:07;7.00;95.00
66088;DHT22;52872;52.994;6.940;2023-02-26T11:36:39;7.10;95.60
66088;DHT22;52872;52.994;6.940;2023-02-26T11:39:20;7.10;95.40
66088;DHT22;52872;52.994;6.940;2023-02-26T11:41:50;7.30;96.00
66088;DHT22;52872;52.994;6.940;2023-02-26T11:47:04;7.40;95.10
66088;DHT22;52872;52.994;6.940;2023-02-26T11:49:32;7.30;95.20
66088;DHT22;52872;52.994;6.940;2023-02-26T11:52:21;7.40;95.10
66088;DHT22;52872;52.994;6.940;2023-02-26T11:54:59;7.50;95.40
66088;DHT22;52872;52.994;6.940;2023-02-26T11:57:29;7.40;95.30
66088;DHT22;52872;52.994;6.940;2023-02-26T11:59:59;7.50;94.60
66088;DHT22;52872;52.994;6.940;2023-02-26T12:02:33;7.60;94.40
66088;DHT22;52872;52.994;6.940;2023-02-26T12:05:05;7.60;94.10
66088;DHT22;52872;52.994;6.940;2023-02-26T12:07:32;7.50;94.60
66088;DHT22;52872;52.994;6.940;2023-02-26T12:09:59;7.50;94.70
66088;DHT22;52872;52.994;6.940;2023-02-26T12:18:08;7.70;94.50
66088;DHT22;52872;52.994;6.940;2023-02-26T12:23:43;7.80;93.90
66088;DHT22;52872;52.994;6.940;2023-02-26T12:40:31;8.30;93.60
66088;DHT22;52872;52.994;6.940;2023-02-26T12:49:18;7.90;92.10
66088;DHT22;52872;52.994;6.940;2023-02-26T12:54:47;7.50;92.20
66088;DHT22;52872;52.994;6.940;2023-02-26T12:57:53;7.50;92.50
66088;DHT22;52872;52.994;6.940;2023-02-26T13:03:25;7.50;92.80
66088;DHT22;52872;52.994;6.940;2023-02-26T13:08:37;7.90;92.50
66088;DHT22;52872;52.994;6.940;2023-02-26T13:11:20;7.90;92.90
66088;DHT22;52872;52.994;6.940;2023-02-26T13:13:59;7.80;94.00
66088;DHT22;52872;52.994;6.940;2023-02-26T13:16:38;7.60;94.00
66088;DHT22;52872;52.994;6.940;2023-02-26T13:22:14;7.50;94.40
66088;DHT22;52872;52.994;6.940;2023-02-26T13:24:52;7.40;93.60
66088;DHT22;52872;52.994;6.940;2023-02-26T13:27:24;7.50;93.60
66088;DHT22;52872;52.994;6.940;2023-02-26T13:32:44;7.70;92.70
66088;DHT22;52872;52.994;6.940;2023-02-26T13:37:50;7.90;92.30
66088;DHT22;52872;52.994;6.940;2023-02-26T13:54:00;7.70;91.90
66088;DHT22;52872;52.994;6.940;2023-02-26T14:01:53;7.60;91.90
66088;DHT22;52872;52.994;6.940;2023-02-26T14:07:06;7.60;92.90
66088;DHT22;52872;52.994;6.940;2023-02-26T14:09:44;7.60;93.60
66088;DHT22;52872;52.994;6.940;2023-02-26T14:12:34;7.80;93.90
66088;DHT22;52872;52.994;6.940;2023-02-26T14:20:11;7.90;93.20
66088;DHT22;52872;52.994;6.940;2023-02-26T14:22:41;7.80;93.70
66088;DHT22;52872;52.994;6.940;2023-02-26T14:25:31;7.60;94.10
66088;DHT22;52872;52.994;6.940;2023-02-26T14:30:49;7.70;94.80
66088;DHT22;52872;52.994;6.940;2023-02-26T14:33:18;7.70;95.10
66088;DHT22;52872;52.994;6.940;2023-02-26T14:35:47;7.70;94.30
66088;DHT22;52872;52.994;6.940;2023-02-26T14:38:23;7.70;94.20
66088;DHT22;52872;52.994;6.940;2023-02-26T14:41:25;7.50;94.70
66088;DHT22;52872;52.994;6.940;2023-02-26T14:46:38;7.30;95.10
66088;DHT22;52872;52.994;6.940;2023-02-26T14:49:17;7.20;94.80
66088;DHT22;52872;52.994;6.940;2023-02-26T14:52:12;7.30;94.30
66088;DHT22;52872;52.994;6.940;2023-02-26T15:09:08;7.40;94.00
66088;DHT22;52872;52.994;6.940;2023-02-26T15:14:58;7.20;94.50
66088;DHT22;52872;52.994;6.940;2023-02-26T15:26:06;7.10;95.40
66088;DHT22;52872;52.994;6.940;2023-02-26T15:28:37;7.00;95.20
66088;DHT22;52872;52.994;6.940;2023-02-26T15:31:08;7.00;95.40
66088;DHT22;52872;52.994;6.940;2023-02-26T15:33:38;7.00;95.30
66088;DHT22;52872;52.994;6.940;2023-02-26T15:36:14;6.90;95.30
66088;DHT22;52872;52.994;6.940;2023-02-26T15:38:48;7.00;95.60
66088;DHT22;52872;52.994;6.940;2023-02-26T15:41:16;6.90;96.10
66088;DHT22;52872;52.994;6.940;2023-02-26T15:43:49;6.90;96.00
66088;DHT22;52872;52.994;6.940;2023-02-26T15:46:16;7.00;96.20
66088;DHT22;52872;52.994;6.940;2023-02-26T15:48:45;7.00;96.70
66088;DHT22;52872;52.994;6.940;2023-02-26T15:51:13;7.00;95.20
66088;DHT22;52872;52.994;6.940;2023-02-26T15:53:46;6.90;94.80
66088;DHT22;52872;52.994;6.940;2023-02-26T15:56:20;6.70;95.10
66088;DHT22;52872;52.994;6.940;2023-02-26T15:58:55;6.60;95.40
66088;DHT22;52872;52.994;6.940;2023-02-26T16:01:25;6.50;95.80
66088;DHT22;52872;52.994;6.940;2023-02-26T16:03:57;6.40;96.20
66088;DHT22;52872;52.994;6.940;2023-02-26T16:06:31;6.20;96.70
66088;DHT22;52872;52.994;6.940;2023-02-26T16:08:59;6.30;97.10
66088;DHT22;52872;52.994;6.940;2023-02-26T16:11:35;6.20;97.10
66088;DHT22;52872;52.994;6.940;2023-02-26T16:14:04;6.20;96.50
66088;DHT22;52872;52.994;6.940;2023-02-26T16:16:44;6.10;97.00
66088;DHT22;52872;52.994;6.940;2023-02-26T16:19:17;6.00;97.00
66088;DHT22;52872;52.994;6.940;2023-02-26T16:21:45;5.90;97.40
66088;DHT22;52872;52.994;6.940;2023-02-26T16:24:18;5.90;97.40
66088;DHT22;52872;52.994;6.940;2023-02-26T16:27:01;5.80;97.50
66088;DHT22;52872;52.994;6.940;2023-02-26T16:29:32;5.80;97.40
66088;DHT22;52872;52.994;6.940;2023-02-26T16:32:02;5.60;97.40
66088;DHT22;52872;52.994;6.940;2023-02-26T16:34:40;5.70;97.90
66088;DHT22;52872;52.994;6.940;2023-02-26T16:39:42;5.60;98.20
66088;DHT22;52872;52.994;6.940;2023-02-26T16:42:18;5.70;98.40
66088;DHT22;52872;52.994;6.940;2023-02-26T16:44:57;5.70;98.60
66088;DHT22;52872;52.994;6.940;2023-02-26T16:47:29;5.70;98.60
66088;DHT22;52872;52.994;6.940;2023-02-26T16:49:56;5.70;98.70
66088;DHT22;52872;52.994;6.940;2023-02-26T16:52:25;5.70;99.00
66088;DHT22;52872;52.994;6.940;2023-02-26T16:54:56;5.70;99.10
66088;DHT22;52872;52.994;6.940;2023-02-26T16:57:42;5.70;99.30
66088;DHT22;52872;52.994;6.940;2023-02-26T17:00:22;5.60;99.40
66088;DHT22;52872;52.994;6.940;2023-02-26T17:02:59;5.60;99.10
66088;DHT22;52872;52.994;6.940;2023-02-26T17:05:29;5.40;98.70
66088;DHT22;52872;52.994;6.940;2023-02-26T17:10:49;5.40;98.70
66088;DHT22;52872;52.994;6.940;2023-02-26T17:13:23;5.40;98.10
66088;DHT22;52872;52.994;6.940;2023-02-26T17:15:51;5.30;98.50
66088;DHT22;52872;52.994;6.940;2023-02-26T17:18:20;5.30;99.00
66088;DHT22;52872;52.994;6.940;2023-02-26T17:20:47;5.30;98.70
66088;DHT22;52872;52.994;6.940;2023-02-26T17:23:15;5.20;99.00
66088;DHT22;52872;52.994;6.940;2023-02-26T17:25:45;5.30;99.00
66088;DHT22;52872;52.994;6.940;2023-02-26T17:28:23;5.20;99.60
66088;DHT22;52872;52.994;6.940;2023-02-26T17:30:51;5.20;99.70
66088;DHT22;52872;52.994;6.940;2023-02-26T17:33:18;5.10;99.90
66088;DHT22;52872;52.994;6.940;2023-02-26T17:35:46;5.10;99.90
66088;DHT22;52872;52.994;6.940;2023-02-26T17:38:14;5.10;99.90
66088;DHT22;52872;52.994;6.940;2023-02-26T17:40:43;5.00;99.90
66088;DHT22;52872;52.994;6.940;2023-02-26T17:43:11;5.10;99.90
66088;DHT22;52872;52.994;6.940;2023-02-26T17:45:39;5.00;99.90
66088;DHT22;52872;52.994;6.940;2023-02-26T17:48:07;5.00;99.90
66088;DHT22;52872;52.994;6.940;2023-02-26T17:50:47;5.10;99.90
66088;DHT22;52872;52.994;6.940;2023-02-26T17:53:16;4.90;99.90
66088;DHT22;52872;52.994;6.940;2023-02-26T17:55:48;4.90;99.90
66088;DHT22;52872;52.994;6.940;2023-02-26T17:58:29;4.90;99.90
66088;DHT22;52872;52.994;6.940;2023-02-26T18:00:57;4.90;99.90
66088;DHT22;52872;52.994;6.940;2023-02-26T18:03:25;4.90;99.90
66088;DHT22;52872;52.994;6.940;2023-02-26T18:05:54;4.90;99.90
66088;DHT22;52872;52.994;6.940;2023-02-26T18:08:32;4.90;99.90
66088;DHT22;52872;52.994;6.940;2023-02-26T18:11:01;4.80;99.90
66088;DHT22;52872;52.994;6.940;2023-02-26T18:13:31;4.80;99.90
66088;DHT22;52872;52.994;6.940;2023-02-26T18:15:59;4.70;99.90
66088;DHT22;52872;52.994;6.940;2023-02-26T18:18:29;4.60;99.90
66088;DHT22;52872;52.994;6.940;2023-02-26T18:20:57;4.60;99.90
66088;DHT22;52872;52.994;6.940;2023-02-26T18:23:24;4.50;99.90
66088;DHT22;52872;52.994;6.940;2023-02-26T18:25:52;4.50;99.90
66088;DHT22;52872;52.994;6.940;2023-02-26T18:28:24;4.50;99.90
66088;DHT22;52872;52.994;6.940;2023-02-26T18:30:53;4.50;99.90
66088;DHT22;52872;52.994;6.940;2023-02-26T18:33:21;4.50;99.90
66088;DHT22;52872;52.994;6.940;2023-02-26T18:35:52;4.40;99.90
66088;DHT22;52872;52.994;6.940;2023-02-26T18:38:23;4.40;99.90
66088;DHT22;52872;52.994;6.940;2023-02-26T18:40:51;4.40;99.90
66088;DHT22;52872;52.994;6.940;2023-02-26T18:43:19;4.40;99.90
66088;DHT22;52872;52.994;6.940;2023-02-26T18:45:48;4.40;99.90
66088;DHT22;52872;52.994;6.940;2023-02-26T18:48:18;4.40;99.90
66088;DHT22;52872;52.994;6.940;2023-02-26T18:50:46;4.40;99.90
66088;DHT22;52872;52.994;6.940;2023-02-26T18:53:14;4.30;99.90
66088;DHT22;52872;52.994;6.940;2023-02-26T18:55:43;4.30;99.90
66088;DHT22;52872;52.994;6.940;2023-02-26T18:58:10;4.20;99.90
66088;DHT22;52872;52.994;6.940;2023-02-26T19:00:37;4.10;99.90